createdAt,value
2022-08-31T00:01:30.364Z,1.17
2022-08-31T00:06:34.230Z,0.93
2022-08-31T00:11:36.221Z,1.02
2022-08-31T00:16:42.699Z,0.60
2022-08-31T00:21:44.984Z,0.93
2022-08-31T00:26:46.998Z,0.73
2022-08-31T00:31:48.831Z,1.50
2022-08-31T00:36:50.600Z,0.90
2022-08-31T00:41:52.447Z,0.73
2022-08-31T00:46:56.214Z,0.57
2022-08-31T00:52:08.451Z,0.93
2022-08-31T00:57:11.726Z,0.70
2022-08-31T01:02:13.458Z,0.60
2022-08-31T01:07:15.337Z,0.73
2022-08-31T01:12:17.233Z,1.15
2022-08-31T01:17:20.654Z,0.75
2022-08-31T01:23:00.114Z,0.85
2022-08-31T01:28:06.521Z,0.90
2022-08-31T01:33:09.256Z,0.98
2022-08-31T01:38:11.003Z,0.93
2022-08-31T01:43:12.644Z,0.73
2022-08-31T01:48:14.564Z,0.77
2022-08-31T01:53:16.326Z,0.93
2022-08-31T01:58:18.021Z,0.98
2022-08-31T02:03:19.972Z,0.60
2022-08-31T02:08:21.830Z,0.90
2022-08-31T02:13:23.487Z,0.77
2022-08-31T02:18:25.951Z,1.02
2022-08-31T02:23:27.715Z,0.90
2022-08-31T02:28:29.456Z,0.90
2022-08-31T02:33:31.465Z,0.70
2022-08-31T02:38:35.071Z,1.40
2022-08-31T02:43:36.776Z,0.98
2022-08-31T02:48:38.449Z,0.88
2022-08-31T02:53:40.169Z,1.00
2022-08-31T02:58:42.333Z,0.90
2022-08-31T03:03:47.115Z,1.30
2022-08-31T03:08:51.057Z,1.02
2022-08-31T03:13:57.774Z,0.80
2022-08-31T03:19:00.219Z,0.90
2022-08-31T03:24:01.865Z,0.85
2022-08-31T03:29:03.709Z,1.35
2022-08-31T03:34:05.839Z,1.15
2022-08-31T03:39:07.488Z,0.90
2022-08-31T03:44:09.176Z,0.93
2022-08-31T03:49:12.403Z,1.08
2022-08-31T03:54:14.153Z,0.70
2022-08-31T03:59:16.152Z,1.00
2022-08-31T04:04:18.425Z,1.15
2022-08-31T04:09:20.125Z,0.85
2022-08-31T04:14:21.822Z,0.82
2022-08-31T04:19:24.836Z,1.10
2022-08-31T04:24:26.617Z,1.00
2022-08-31T04:29:28.390Z,0.80
2022-08-31T04:34:30.287Z,1.20
2022-08-31T04:39:33.899Z,1.33
2022-08-31T04:44:35.765Z,0.95
2022-08-31T04:49:37.770Z,1.17
2022-08-31T04:54:39.464Z,0.95
2022-08-31T04:59:41.151Z,1.10
2022-08-31T05:04:42.772Z,1.30
2022-08-31T05:09:44.446Z,1.45
2022-08-31T05:14:47.780Z,1.45
2022-08-31T05:19:52.158Z,1.10
2022-08-31T05:24:53.850Z,1.35
2022-08-31T05:29:55.516Z,1.30
2022-08-31T05:34:57.281Z,1.33
2022-08-31T05:39:59.136Z,1.13
2022-08-31T05:45:00.882Z,1.50
2022-08-31T05:50:02.563Z,1.10
2022-08-31T05:55:10.217Z,1.15
2022-08-31T06:00:12.287Z,1.17
2022-08-31T06:05:14.198Z,1.23
2022-08-31T06:10:16.484Z,1.15
2022-08-31T06:15:18.259Z,0.80
2022-08-31T06:20:20.162Z,0.90
2022-08-31T06:25:23.484Z,0.95
2022-08-31T06:30:27.458Z,1.00
2022-08-31T06:35:29.579Z,1.00
2022-08-31T06:40:31.266Z,0.80
2022-08-31T06:45:33.021Z,1.02
2022-08-31T06:50:35.132Z,1.60
2022-08-31T06:55:37.198Z,1.00
2022-08-31T07:00:38.865Z,0.80
2022-08-31T07:05:40.482Z,0.60
2022-08-31T07:10:42.249Z,0.80
2022-08-31T07:15:43.942Z,0.70
2022-08-31T07:20:45.620Z,0.80
2022-08-31T07:25:47.240Z,0.73
2022-08-31T07:30:50.131Z,0.60
2022-08-31T07:35:52.033Z,0.90
2022-08-31T07:41:12.586Z,0.82
2022-08-31T07:46:14.730Z,0.55
2022-08-31T07:51:23.446Z,0.70
2022-08-31T07:56:25.548Z,0.80
2022-08-31T08:01:35.935Z,0.90
2022-08-31T08:06:38.026Z,0.80
2022-08-31T08:11:44.608Z,0.80
2022-08-31T08:21:48.490Z,0.60
2022-08-31T08:26:54.468Z,0.82
2022-08-31T08:31:56.601Z,0.90
2022-08-31T08:36:58.427Z,0.80
2022-08-31T08:42:00.068Z,0.70
2022-08-31T08:47:06.363Z,0.90
2022-08-31T08:52:37.357Z,0.75
2022-08-31T08:57:42.490Z,0.80
2022-08-31T09:03:03.442Z,1.05
2022-08-31T09:08:41.551Z,0.88
2022-08-31T09:14:08.086Z,0.93
2022-08-31T09:19:15.430Z,1.20
2022-08-31T09:24:20.846Z,0.80
2022-08-31T09:29:29.439Z,1.02
2022-08-31T09:34:36.433Z,0.82
2022-08-31T09:39:38.073Z,0.90
2022-08-31T09:44:42.116Z,0.70
2022-08-31T09:49:54.862Z,0.95
2022-08-31T09:55:14.142Z,0.90
2022-08-31T10:00:25.978Z,0.90
2022-08-31T10:05:33.099Z,1.10
2022-08-31T10:10:38.397Z,0.85
2022-08-31T10:16:01.750Z,0.75
2022-08-31T10:21:21.310Z,0.88
2022-08-31T10:26:39.909Z,0.85
2022-08-31T10:31:48.408Z,0.68
2022-08-31T10:36:59.842Z,0.63
2022-08-31T10:42:07.191Z,0.88
2022-08-31T10:47:16.881Z,1.05
2022-08-31T10:52:34.536Z,0.80
2022-08-31T10:57:59.083Z,0.93
2022-08-31T11:03:28.937Z,0.90
2022-08-31T11:08:48.965Z,0.77
2022-08-31T11:14:18.610Z,0.80
2022-08-31T11:19:29.696Z,0.77
2022-08-31T11:24:55.675Z,0.70
2022-08-31T11:30:02.615Z,0.73
2022-08-31T11:35:10.724Z,0.90
2022-08-31T11:40:12.904Z,0.82
2022-08-31T11:45:32.925Z,0.77
2022-08-31T11:51:15.447Z,0.63
2022-08-31T11:56:36.149Z,0.88
2022-08-31T12:01:42.965Z,0.57
2022-08-31T12:06:50.526Z,0.80
2022-08-31T12:12:06.828Z,0.60
2022-08-31T12:17:54.807Z,1.00
2022-08-31T12:23:30.744Z,0.82
2022-08-31T12:29:14.432Z,1.00
2022-08-31T12:34:20.425Z,0.70
2022-08-31T12:39:28.341Z,1.00
2022-08-31T12:44:37.501Z,0.65
2022-08-31T12:50:03.624Z,0.75
2022-08-31T13:00:30.969Z,0.80
2022-08-31T13:05:38.113Z,0.80
2022-08-31T13:10:39.801Z,0.85
2022-08-31T13:15:43.965Z,0.70
2022-08-31T13:20:46.745Z,0.70
2022-08-31T13:26:03.426Z,0.70
2022-08-31T13:31:11.717Z,0.63
2022-08-31T13:36:31.959Z,0.68
2022-08-31T13:41:40.751Z,0.90
2022-08-31T13:46:55.312Z,1.00
2022-08-31T13:51:57.372Z,0.85
2022-08-31T13:57:25.769Z,0.90
2022-08-31T14:02:36.343Z,0.90
2022-08-31T14:07:39.339Z,0.98
2022-08-31T14:12:51.614Z,0.55
2022-08-31T14:23:27.868Z,0.90
2022-08-31T14:28:43.601Z,0.85
2022-08-31T14:33:47.949Z,0.80
2022-08-31T14:38:51.995Z,0.70
2022-08-31T14:43:54.464Z,0.73
2022-08-31T14:48:56.579Z,0.50
2022-08-31T14:54:00.218Z,0.88
2022-08-31T14:59:04.718Z,1.00
2022-08-31T15:04:06.790Z,0.60
2022-08-31T15:09:09.078Z,0.50
2022-08-31T15:14:14.081Z,0.68
2022-08-31T15:19:16.463Z,0.65
2022-08-31T15:24:25.001Z,0.60
2022-08-31T15:29:30.130Z,0.85
2022-08-31T15:34:32.924Z,1.00
2022-08-31T15:39:43.260Z,1.20
2022-08-31T15:44:45.878Z,1.02
2022-08-31T15:49:47.617Z,1.17
2022-08-31T15:54:50.430Z,1.20
2022-08-31T15:59:52.488Z,1.25
2022-08-31T16:04:57.687Z,1.13
2022-08-31T16:09:59.414Z,1.13
2022-08-31T16:15:01.129Z,0.98
2022-08-31T16:20:03.541Z,1.00
2022-08-31T16:25:07.869Z,1.20
2022-08-31T16:30:12.190Z,0.80
2022-08-31T16:35:13.942Z,1.00
2022-08-31T16:40:16.335Z,1.02
2022-08-31T16:45:18.197Z,1.00
2022-08-31T16:50:20.013Z,1.38
2022-08-31T16:55:21.830Z,1.30
2022-08-31T17:00:27.582Z,0.98
2022-08-31T17:05:33.314Z,1.20
2022-08-31T17:10:35.069Z,1.23
2022-08-31T17:15:36.781Z,1.13
2022-08-31T17:20:40.876Z,1.50
2022-08-31T17:25:43.357Z,1.48
2022-08-31T17:30:46.809Z,1.33
2022-08-31T17:35:48.622Z,1.10
2022-08-31T17:40:50.735Z,1.23
2022-08-31T17:45:52.813Z,1.65
2022-08-31T17:50:57.083Z,1.77
2022-08-31T17:56:00.923Z,1.95
2022-08-31T18:01:07.128Z,1.52
2022-08-31T18:06:08.916Z,1.52
2022-08-31T18:11:10.832Z,1.95
2022-08-31T18:16:13.895Z,1.48
2022-08-31T18:21:22.329Z,1.33
2022-08-31T18:26:26.998Z,2.08
2022-08-31T18:31:30.701Z,1.67
2022-08-31T18:36:38.426Z,1.70
2022-08-31T18:41:58.780Z,2.08
2022-08-31T18:47:07.454Z,1.60
2022-08-31T18:52:19.233Z,1.48
2022-08-31T18:57:23.325Z,1.20
2022-08-31T19:02:25.294Z,1.30
2022-08-31T19:07:27.158Z,1.50
2022-08-31T19:12:29.463Z,1.13
2022-08-31T19:17:32.057Z,1.48
2022-08-31T19:22:34.122Z,1.20
2022-08-31T19:27:37.054Z,1.40
2022-08-31T19:32:38.755Z,1.50
2022-08-31T19:37:40.499Z,1.55
2022-08-31T19:43:00.076Z,1.15
2022-08-31T19:48:05.107Z,1.48
2022-08-31T19:53:07.191Z,1.30
2022-08-31T19:58:08.916Z,1.13
2022-08-31T20:03:12.805Z,1.20
2022-08-31T20:08:14.496Z,1.27
2022-08-31T20:13:16.254Z,0.90
2022-08-31T20:18:18.163Z,0.82
2022-08-31T20:23:21.313Z,0.90
2022-08-31T20:28:27.322Z,0.75
2022-08-31T20:33:29.179Z,0.70
2022-08-31T20:38:37.408Z,0.65
2022-08-31T20:43:39.542Z,0.73
2022-08-31T20:48:59.891Z,0.57
2022-08-31T20:54:01.564Z,0.70
2022-08-31T20:59:09.659Z,0.52
2022-08-31T21:04:11.327Z,0.63
2022-08-31T21:09:13.467Z,0.70
2022-08-31T21:14:18.061Z,0.50
2022-08-31T21:19:24.592Z,0.60
2022-08-31T21:24:26.219Z,0.60
2022-08-31T21:29:28.188Z,0.70
2022-08-31T21:34:29.884Z,0.70
2022-08-31T21:39:32.432Z,0.70
2022-08-31T21:44:34.289Z,0.60
2022-08-31T21:49:36.008Z,0.60
2022-08-31T21:54:41.794Z,0.50
2022-08-31T21:59:43.742Z,0.60
2022-08-31T22:04:45.565Z,0.90
2022-08-31T22:09:47.289Z,0.52
2022-08-31T22:14:50.395Z,0.70
2022-08-31T22:19:52.305Z,0.50
2022-08-31T22:24:55.285Z,0.43
2022-08-31T22:29:57.052Z,0.60
2022-08-31T22:34:58.891Z,0.50
2022-08-31T22:40:01.369Z,0.40
2022-08-31T22:45:03.649Z,0.40
2022-08-31T22:50:05.971Z,0.40
2022-08-31T22:55:09.121Z,0.50
2022-08-31T23:00:14.439Z,0.40
2022-08-31T23:05:18.437Z,0.60
2022-08-31T23:10:20.827Z,0.50
2022-08-31T23:15:22.897Z,0.20
2022-08-31T23:20:25.170Z,0.30
2022-08-31T23:25:27.109Z,0.55
2022-08-31T23:30:28.874Z,0.40
2022-08-31T23:35:30.711Z,0.30
2022-08-31T23:40:34.201Z,0.50
2022-08-31T23:45:37.702Z,0.32
2022-08-31T23:50:39.749Z,0.40
2022-08-31T23:55:46.031Z,0.50
